Time;durP1;ratioP1;P1;durP2;ratioP2;P2;SDS_P1;SDS_P2;PMS_P1;PMS_P2;Temp;Humidity;BMP_temperature;BMP_pressure;BME280_temperature;BME280_humidity;BME280_pressure;Samples;Min_cycle;Max_cycle;Signal;HPM_P1;HPM_P2
2023/05/09 00:00:43;;;;;;;0.10;0.10;;;;;;;14.92;68.05;100616.59;7357442;19;20494;-68
2023/05/09 00:03:08;;;;;;;0.00;0.00;;;;;;;14.91;67.81;100621.00;7356351;19;20064;-68
2023/05/09 00:05:34;;;;;;;0.00;0.00;;;;;;;14.89;67.46;100614.06;7355500;19;20030;-66
2023/05/09 00:07:59;;;;;;;0.00;0.00;;;;;;;14.60;67.48;100568.84;7358166;19;20014;-68
2023/05/09 00:10:26;;;;;;;0.00;0.00;;;;;;;14.84;67.96;100602.91;7353521;19;20070;-68
2023/05/09 00:12:51;;;;;;;0.03;0.03;;;;;;;14.81;67.46;100597.78;7358764;19;20581;-68
2023/05/09 00:15:17;;;;;;;0.00;0.00;;;;;;;14.76;67.44;100598.81;7355577;19;20106;-68
2023/05/09 00:17:44;;;;;;;0.03;0.03;;;;;;;14.72;67.31;100596.38;7358382;19;20014;-68
2023/05/09 00:20:11;;;;;;;0.00;0.00;;;;;;;14.67;67.79;100595.72;7356653;19;20033;-68
2023/05/09 00:22:40;;;;;;;0.00;0.00;;;;;;;14.65;68.14;100602.78;7357589;19;20007;-68
2023/05/09 00:25:07;;;;;;;0.00;0.00;;;;;;;14.60;67.81;100595.13;7355364;19;20022;-68
2023/05/09 00:27:32;;;;;;;0.00;0.00;;;;;;;14.59;67.92;100609.16;7358772;19;20359;-68
2023/05/09 00:29:58;;;;;;;0.00;0.00;;;;;;;14.54;67.64;100600.59;7355153;19;20006;-68
2023/05/09 00:32:24;;;;;;;0.00;0.00;;;;;;;14.53;68.10;100606.78;7357028;19;20014;-68
2023/05/09 00:34:50;;;;;;;0.00;0.00;;;;;;;14.48;68.00;100606.97;7356416;19;20018;-68
2023/05/09 00:37:18;;;;;;;0.00;0.00;;;;;;;14.46;68.30;100618.44;7360314;19;20010;-68
2023/05/09 00:39:44;;;;;;;0.00;0.00;;;;;;;14.43;67.94;100613.28;7354677;19;20014;-68
2023/05/09 00:42:09;;;;;;;0.00;0.00;;;;;;;14.41;67.65;100609.88;7355445;19;20042;-68
2023/05/09 00:44:34;;;;;;;0.00;0.00;;;;;;;14.36;68.00;100610.06;7353996;19;20010;-68
2023/05/09 00:47:00;;;;;;;0.00;0.00;;;;;;;14.35;68.07;100615.41;7359590;19;20010;-68
2023/05/09 00:49:25;;;;;;;0.10;0.10;;;;;;;14.31;68.36;100613.78;7355535;19;20014;-68
2023/05/09 00:51:52;;;;;;;0.10;0.10;;;;;;;14.28;68.52;100606.88;7354719;19;20467;-68
2023/05/09 00:54:17;;;;;;;0.00;0.00;;;;;;;14.25;68.20;100605.25;7355831;19;20007;-67
2023/05/09 00:56:44;;;;;;;0.00;0.00;;;;;;;14.22;68.61;100604.50;7358700;19;20010;-68
2023/05/09 00:59:09;;;;;;;0.03;0.03;;;;;;;14.20;67.68;100603.72;7352975;19;20039;-68
2023/05/09 01:01:35;;;;;;;0.00;0.00;;;;;;;14.16;68.30;100600.34;7357653;19;20002;-68
2023/05/09 01:04:00;;;;;;;0.00;0.00;;;;;;;14.14;68.47;100603.94;7353925;19;20375;-68
2023/05/09 01:06:53;;;;;;;0.00;0.00;;;;;;;14.12;67.94;100609.25;7353942;19;20081;-68
2023/05/09 01:09:29;;;;;;;0.00;0.00;;;;;;;13.99;68.24;100597.53;7250543;19;2004302;-67
2023/05/09 01:12:12;;;;;;;0.00;0.00;;;;;;;14.03;68.87;100606.97;7355309;19;20010;-68
2023/05/09 01:15:04;;;;;;;0.00;0.00;;;;;;;14.02;68.52;100602.66;7357350;19;20019;-68
2023/05/09 01:17:32;;;;;;;0.00;0.00;;;;;;;13.98;68.69;100608.91;7254113;19;2004677;-68
2023/05/09 01:20:17;;;;;;;0.00;0.00;;;;;;;13.96;68.91;100618.63;7353802;19;20490;-68
2023/05/09 01:22:51;;;;;;;0.10;0.10;;;;;;;13.92;68.93;100607.38;7355218;19;20017;-68
2023/05/09 01:25:35;;;;;;;0.00;0.00;;;;;;;13.89;68.80;100611.88;7355655;19;20771;-68
2023/05/09 01:28:15;;;;;;;0.00;0.00;;;;;;;13.87;68.57;100609.34;7355183;19;20006;-68
2023/05/09 01:30:44;;;;;;;0.03;0.03;;;;;;;13.83;69.26;100601.63;7352703;19;20042;-68
2023/05/09 01:33:15;;;;;;;0.00;0.00;;;;;;;13.83;69.34;100604.25;7346700;19;20093;-68
2023/05/09 01:35:45;;;;;;;0.00;0.00;;;;;;;13.80;69.98;100607.00;7355587;19;20526;-67
2023/05/09 01:38:15;;;;;;;0.10;0.10;;;;;;;13.66;69.37;100579.50;7348339;19;20018;-68
2023/05/09 01:40:43;;;;;;;0.00;0.00;;;;;;;13.63;69.64;100584.84;7354100;19;20510;-68
2023/05/09 01:43:10;;;;;;;0.00;0.00;;;;;;;13.70;69.66;100596.84;7356705;19;20014;-68
2023/05/09 01:45:38;;;;;;;0.00;0.00;;;;;;;13.72;69.74;100600.25;7354398;19;20010;-68
2023/05/09 01:48:07;;;;;;;0.00;0.00;;;;;;;13.70;69.35;100602.09;7357152;19;20032;-67
2023/05/09 01:50:34;;;;;;;0.00;0.00;;;;;;;13.61;69.76;100589.31;7352435;19;20037;-69
2023/05/09 01:53:00;;;;;;;0.00;0.00;;;;;;;13.66;69.89;100597.88;7352677;19;20006;-68
2023/05/09 01:55:35;;;;;;;0.00;0.00;;;;;;;13.64;69.37;100591.00;7353337;19;20835;-68
2023/05/09 01:58:03;;;;;;;0.00;0.00;;;;;;;13.64;70.09;100602.34;7345322;19;20085;-67
2023/05/09 02:00:30;;;;;;;0.00;0.00;;;;;;;13.51;69.74;100582.69;7352415;19;20083;-67
2023/05/09 02:02:57;;;;;;;0.10;0.10;;;;;;;13.53;69.94;100591.34;7352104;19;20018;-68
2023/05/09 02:05:26;;;;;;;0.00;0.00;;;;;;;13.59;69.54;100599.03;7346602;19;20014;-68
2023/05/09 02:07:53;;;;;;;0.10;0.10;;;;;;;13.57;69.70;100606.06;7352436;19;20022;-67
2023/05/09 02:10:20;;;;;;;0.00;0.00;;;;;;;13.55;70.45;100593.94;7355042;19;20106;-67
2023/05/09 02:12:45;;;;;;;0.00;0.00;;;;;;;13.52;69.89;100602.75;7352015;19;20019;-68
2023/05/09 02:15:11;;;;;;;0.00;0.00;;;;;;;13.50;70.12;100594.97;7351977;19;20038;-67
2023/05/09 02:17:36;;;;;;;0.10;0.10;;;;;;;13.49;70.45;100600.28;7353956;19;20081;-67
2023/05/09 02:20:04;;;;;;;0.00;0.00;;;;;;;13.47;69.96;100594.19;7350364;19;20042;-67
2023/05/09 02:22:29;;;;;;;0.00;0.00;;;;;;;13.46;70.72;100597.75;7361363;19;20022;-67
2023/05/09 02:24:55;;;;;;;0.10;0.10;;;;;;;13.43;70.62;100596.09;7358456;19;20528;-68
2023/05/09 02:27:21;;;;;;;0.00;0.00;;;;;;;13.04;71.34;100537.19;7360860;19;20010;-67
2023/05/09 02:29:49;;;;;;;0.00;0.00;;;;;;;13.42;71.68;100598.75;7357602;19;20006;-67
2023/05/09 02:32:19;;;;;;;0.00;0.00;;;;;;;13.41;71.13;100591.81;7357167;19;20010;-67
2023/05/09 02:34:47;;;;;;;0.00;0.00;;;;;;;13.41;71.25;100599.69;7358050;19;20014;-68
2023/05/09 02:37:13;;;;;;;0.10;0.10;;;;;;;13.34;71.32;100587.72;7358254;19;20031;-67
2023/05/09 02:39:39;;;;;;;0.05;0.05;;;;;;;13.37;71.95;100593.69;7356123;19;20478;-67
2023/05/09 02:42:09;;;;;;;0.00;0.00;;;;;;;13.38;71.73;100598.03;7357241;19;20042;-68
2023/05/09 02:44:35;;;;;;;0.00;0.00;;;;;;;13.37;72.08;100592.81;7357470;19;20014;-68
2023/05/09 02:47:02;;;;;;;0.00;0.00;;;;;;;13.36;72.55;100591.13;7357568;19;20031;-67
2023/05/09 02:49:27;;;;;;;0.00;0.00;;;;;;;13.35;72.73;100589.41;7358718;19;20066;-67
2023/05/09 02:51:52;;;;;;;0.00;0.00;;;;;;;13.33;73.01;100585.97;7355520;19;20007;-68
2023/05/09 02:54:18;;;;;;;0.00;0.00;;;;;;;13.33;72.30;100596.47;7358041;19;20765;-68
2023/05/09 02:56:43;;;;;;;0.05;0.05;;;;;;;13.32;72.35;100592.13;7355625;19;20795;-67
2023/05/09 02:59:08;;;;;;;0.10;0.10;;;;;;;13.31;72.61;100590.44;7358589;19;20018;-67
2023/05/09 03:01:34;;;;;;;0.00;0.00;;;;;;;13.28;72.77;100587.91;7359186;19;20011;-67
2023/05/09 03:04:00;;;;;;;0.00;0.00;;;;;;;13.28;72.76;100587.91;7330882;19;20014;-68
2023/05/09 03:06:25;;;;;;;0.03;0.03;;;;;;;13.27;72.75;100586.19;7359031;19;20046;-67
2023/05/09 03:08:51;;;;;;;0.00;0.00;;;;;;;13.26;72.74;100594.97;7358601;19;20007;-67
2023/05/09 03:11:16;;;;;;;0.00;0.00;;;;;;;13.26;72.20;100589.75;7357138;19;20023;-67
2023/05/09 03:13:41;;;;;;;0.00;0.00;;;;;;;12.89;72.50;100533.34;7357673;19;20699;-67
2023/05/09 03:16:07;;;;;;;0.08;0.08;;;;;;;13.23;71.90;100591.56;7356238;19;20030;-67
2023/05/09 03:18:32;;;;;;;0.05;0.05;;;;;;;13.22;72.31;100588.97;7357927;19;20018;-67
2023/05/09 03:20:58;;;;;;;0.00;0.00;;;;;;;13.20;72.24;100586.38;7338939;19;20033;-67
2023/05/09 03:23:23;;;;;;;0.00;0.00;;;;;;;13.20;71.61;100588.16;7351108;19;20027;-67
2023/05/09 03:25:48;;;;;;;0.00;0.00;;;;;;;13.16;71.92;100584.78;7356922;19;20031;-67
2023/05/09 03:28:14;;;;;;;0.10;0.10;;;;;;;13.19;71.97;100589.06;7357601;19;20544;-67
2023/05/09 03:30:39;;;;;;;0.10;0.10;;;;;;;13.18;72.32;100590.84;7361195;19;20018;-68
2023/05/09 03:33:05;;;;;;;0.00;0.00;;;;;;;13.19;72.59;100589.94;7353205;19;20393;-67
2023/05/09 03:35:30;;;;;;;0.00;0.00;;;;;;;13.21;73.04;100592.50;7359626;19;20025;-67
2023/05/09 03:37:56;;;;;;;0.10;0.10;;;;;;;13.21;72.92;100598.63;7356127;19;20014;-67
2023/05/09 03:40:21;;;;;;;0.00;0.00;;;;;;;13.24;72.95;100589.81;7355533;19;20243;-68
2023/05/09 03:42:47;;;;;;;0.00;0.00;;;;;;;13.29;73.12;100594.88;7356832;19;20006;-67
2023/05/09 03:45:12;;;;;;;0.00;0.00;;;;;;;13.27;73.37;100586.19;7359450;19;20574;-67
2023/05/09 03:47:37;;;;;;;0.10;0.10;;;;;;;13.37;73.58;100592.81;7358346;19;20077;-68
2023/05/09 03:50:03;;;;;;;0.00;0.00;;;;;;;13.41;72.88;100589.19;7356570;19;20018;-67
2023/05/09 03:52:29;;;;;;;0.00;0.00;;;;;;;13.41;73.42;100581.31;7353229;19;20027;-68
2023/05/09 03:54:54;;;;;;;0.00;0.00;;;;;;;13.49;73.18;100582.75;7358311;19;20031;-67
2023/05/09 03:57:20;;;;;;;0.10;0.10;;;;;;;13.53;73.22;100580.84;7353621;19;20010;-67
2023/05/09 03:59:45;;;;;;;0.00;0.00;;;;;;;13.58;73.19;100580.69;7356797;19;20015;-67
2023/05/09 04:02:10;;;;;;;0.00;0.00;;;;;;;13.61;73.07;100576.19;7357492;19;20161;-68
2023/05/09 04:04:36;;;;;;;0.00;0.00;;;;;;;13.64;73.36;100576.09;7354635;19;20589;-67
2023/05/09 04:07:01;;;;;;;0.10;0.10;;;;;;;13.66;72.89;100563.75;7357742;19;20019;-68
2023/05/09 04:09:27;;;;;;;0.00;0.00;;;;;;;13.72;72.81;100568.78;7355602;19;20002;-67
2023/05/09 04:11:53;;;;;;;0.00;0.00;;;;;;;13.76;73.27;100573.00;7357168;19;20023;-68
2023/05/09 04:14:18;;;;;;;0.00;0.00;;;;;;;13.80;72.52;100567.66;7359066;19;20034;-68
2023/05/09 04:16:44;;;;;;;0.10;0.10;;;;;;;13.83;72.99;100570.13;7353792;19;20459;-67
2023/05/09 04:19:09;;;;;;;0.00;0.00;;;;;;;13.84;72.54;100564.84;7358446;19;20010;-67
2023/05/09 04:21:34;;;;;;;0.00;0.00;;;;;;;13.87;72.86;100562.09;7357421;19;20459;-67
2023/05/09 04:24:00;;;;;;;0.05;0.05;;;;;;;13.79;72.59;100542.28;7352428;19;20022;-67
2023/05/09 04:26:26;;;;;;;0.00;0.00;;;;;;;13.88;72.05;100547.19;7358424;19;20019;-68
2023/05/09 04:28:51;;;;;;;0.08;0.08;;;;;;;13.92;72.28;100554.88;7356449;19;20018;-68
2023/05/09 04:31:18;;;;;;;0.00;0.00;;;;;;;13.94;72.13;100558.31;7350229;19;20010;-68
2023/05/09 04:33:43;;;;;;;0.08;0.08;;;;;;;13.95;71.88;100552.16;7356866;19;20007;-67
2023/05/09 04:36:09;;;;;;;0.10;0.10;;;;;;;13.97;71.70;100552.09;7355134;19;20010;-68
2023/05/09 04:38:35;;;;;;;0.00;0.00;;;;;;;13.98;71.85;100553.78;7356280;19;20693;-68
2023/05/09 04:41:00;;;;;;;0.08;0.08;;;;;;;13.98;71.61;100549.38;7357486;19;20769;-68
2023/05/09 04:43:26;;;;;;;0.05;0.05;;;;;;;13.92;71.99;100540.91;7355550;19;20031;-67
2023/05/09 04:45:52;;;;;;;0.00;0.00;;;;;;;13.86;71.89;100523.63;7356607;19;20010;-67
2023/05/09 04:48:18;;;;;;;0.10;0.10;;;;;;;14.02;71.63;100539.63;7356468;19;20468;-67
2023/05/09 04:50:43;;;;;;;0.00;0.00;;;;;;;14.03;71.86;100542.19;7358206;19;20042;-68
2023/05/09 04:53:09;;;;;;;0.10;0.10;;;;;;;14.03;71.70;100541.34;7356266;19;20021;-67
2023/05/09 04:55:35;;;;;;;0.10;0.10;;;;;;;13.96;72.07;100524.13;7356973;19;20014;-68
2023/05/09 04:58:01;;;;;;;0.00;0.00;;;;;;;14.07;72.02;100534.19;7352573;19;20821;-68
2023/05/09 05:00:26;;;;;;;0.10;0.10;;;;;;;14.10;71.73;100537.56;7352441;19;20139;-68
2023/05/09 05:02:52;;;;;;;0.03;0.03;;;;;;;14.11;71.82;100539.28;7352749;19;20021;-68
2023/05/09 05:05:17;;;;;;;0.00;0.00;;;;;;;14.13;71.64;100533.94;7356551;19;20018;-68
2023/05/09 05:07:43;;;;;;;0.00;0.00;;;;;;;14.14;71.74;100538.28;7352261;19;20682;-66
2023/05/09 05:10:08;;;;;;;0.10;0.10;;;;;;;14.16;71.43;100531.22;7356824;19;20018;-67
2023/05/09 05:12:34;;;;;;;0.00;0.00;;;;;;;14.16;71.64;100525.97;7355069;19;20042;-66
2023/05/09 05:14:59;;;;;;;0.03;0.03;;;;;;;14.19;71.57;100531.97;7357902;19;20632;-67
2023/05/09 05:17:28;;;;;;;0.08;0.08;;;;;;;14.21;71.49;100534.50;7354155;19;20026;-68
2023/05/09 05:19:53;;;;;;;0.10;0.10;;;;;;;14.22;71.60;100541.47;7354147;19;20022;-68
2023/05/09 05:22:19;;;;;;;0.00;0.00;;;;;;;14.21;71.39;100529.25;7356329;19;20957;-67
2023/05/09 05:24:44;;;;;;;0.00;0.00;;;;;;;14.23;71.11;100533.50;7352763;19;20006;-68
2023/05/09 05:27:10;;;;;;;0.10;0.10;;;;;;;14.25;71.30;100536.09;7355048;19;20021;-68
2023/05/09 05:29:35;;;;;;;0.00;0.00;;;;;;;14.25;71.29;100526.44;7354353;19;20022;-67
2023/05/09 05:32:00;;;;;;;0.00;0.00;;;;;;;14.26;71.01;100532.56;7357264;19;20459;-68
2023/05/09 05:34:26;;;;;;;0.08;0.08;;;;;;;14.27;71.11;100529.84;7354312;19;20014;-67
2023/05/09 05:36:51;;;;;;;0.00;0.00;;;;;;;14.27;70.88;100526.38;7357372;19;20014;-68
2023/05/09 05:39:17;;;;;;;0.05;0.05;;;;;;;14.25;70.76;100529.06;7353469;19;20024;-67
2023/05/09 05:41:42;;;;;;;0.05;0.05;;;;;;;14.28;71.08;100526.31;7354916;19;20006;-68
2023/05/09 05:44:07;;;;;;;0.05;0.05;;;;;;;14.28;71.15;100521.06;7354952;19;20360;-67
2023/05/09 05:46:33;;;;;;;0.10;0.10;;;;;;;14.24;71.04;100514.25;7356412;19;20014;-68
2023/05/09 05:48:58;;;;;;;0.00;0.00;;;;;;;14.31;70.67;100530.59;7352853;19;20494;-66
2023/05/09 05:51:24;;;;;;;0.10;0.10;;;;;;;14.32;71.03;100532.28;7352864;19;20589;-67
2023/05/09 05:53:49;;;;;;;0.10;0.10;;;;;;;14.34;71.12;100521.72;7349046;19;20057;-67
2023/05/09 05:56:14;;;;;;;0.00;0.00;;;;;;;14.20;71.20;100506.53;7353720;19;20014;-67
2023/05/09 05:58:40;;;;;;;0.00;0.00;;;;;;;14.36;71.01;100523.38;7340609;19;20010;-67
2023/05/09 06:01:05;;;;;;;0.05;0.05;;;;;;;14.39;71.01;100532.88;7354294;19;20011;-67
2023/05/09 06:03:31;;;;;;;0.00;0.00;;;;;;;14.38;71.43;100525.94;7351261;19;20002;-68
2023/05/09 06:05:56;;;;;;;0.00;0.00;;;;;;;14.42;71.26;100525.75;7353495;19;20019;-68
2023/05/09 06:08:22;;;;;;;0.10;0.10;;;;;;;14.44;71.35;100530.94;7353022;19;20018;-68
2023/05/09 06:10:47;;;;;;;0.00;0.00;;;;;;;14.48;71.42;100533.41;7352471;19;20671;-66
2023/05/09 06:13:12;;;;;;;0.00;0.00;;;;;;;14.51;70.89;100522.78;7351206;19;20377;-68
2023/05/09 06:15:38;;;;;;;0.10;0.10;;;;;;;14.53;71.17;100525.31;7355379;19;20521;-68
2023/05/09 06:18:03;;;;;;;0.00;0.00;;;;;;;14.55;70.60;100528.78;7352652;19;20018;-68
2023/05/09 06:20:29;;;;;;;0.00;0.00;;;;;;;14.58;70.27;100527.78;7351845;19;20611;-68
2023/05/09 06:22:54;;;;;;;0.10;0.10;;;;;;;14.55;70.33;100515.63;7351131;19;20597;-68
2023/05/09 06:25:19;;;;;;;0.00;0.00;;;;;;;14.61;70.37;100518.00;7354369;19;20471;-68
2023/05/09 06:27:45;;;;;;;0.00;0.00;;;;;;;14.64;70.51;100528.34;7345785;19;20048;-68
2023/05/09 06:30:11;;;;;;;0.10;0.10;;;;;;;14.67;70.59;100528.25;7354450;19;20538;-68
2023/05/09 06:32:36;;;;;;;0.00;0.00;;;;;;;14.72;70.12;100530.69;7353157;19;20355;-68
2023/05/09 06:35:02;;;;;;;0.00;0.00;;;;;;;14.77;70.28;100528.69;7351227;19;20007;-68
2023/05/09 06:37:32;;;;;;;0.00;0.00;;;;;;;14.84;69.98;100529.28;7355276;19;20006;-68
2023/05/09 06:39:57;;;;;;;0.10;0.10;;;;;;;14.84;69.86;100532.75;7348472;19;20014;-67
2023/05/09 06:42:23;;;;;;;0.00;0.00;;;;;;;14.89;69.64;100537.81;7349143;19;20549;-68
2023/05/09 06:44:48;;;;;;;0.05;0.05;;;;;;;14.91;69.91;100530.75;7349840;19;20014;-67
2023/05/09 06:47:13;;;;;;;0.00;0.00;;;;;;;14.69;70.22;100494.84;7352880;19;20010;-68
2023/05/09 06:49:39;;;;;;;0.10;0.10;;;;;;;14.99;70.11;100540.00;7349953;19;20141;-64
2023/05/09 06:52:04;;;;;;;0.00;0.00;;;;;;;14.95;70.08;100527.91;7333287;19;20416;-68
2023/05/09 06:54:30;;;;;;;0.10;0.10;;;;;;;15.01;69.61;100529.44;7340727;19;20027;-68
2023/05/09 06:56:55;;;;;;;0.10;0.10;;;;;;;15.17;69.71;100548.88;7348301;19;20022;-68
2023/05/09 06:59:21;;;;;;;0.10;0.10;;;;;;;15.14;69.52;100527.94;7351338;19;20540;-68
2023/05/09 07:01:46;;;;;;;0.10;0.10;;;;;;;15.27;69.20;100544.91;7350913;19;20022;-67
2023/05/09 07:04:12;;;;;;;0.00;0.00;;;;;;;15.34;68.55;100544.63;7351302;19;20043;-68
2023/05/09 07:06:37;;;;;;;0.00;0.00;;;;;;;15.37;68.44;100547.97;7350362;19;20054;-68
2023/05/09 07:09:03;;;;;;;0.10;0.10;;;;;;;15.40;68.20;100539.94;7357484;19;20363;-68
2023/05/09 07:11:33;;;;;;;0.00;0.00;;;;;;;15.45;68.08;100545.00;7337751;19;20026;-68
2023/05/09 07:13:59;;;;;;;0.10;0.10;;;;;;;15.44;68.48;100545.91;7355715;19;20142;-68
2023/05/09 07:16:24;;;;;;;0.10;0.10;;;;;;;15.47;68.31;100543.16;7352745;19;20649;-68
2023/05/09 07:18:50;;;;;;;0.10;0.10;;;;;;;15.51;68.52;100547.34;7362345;19;20031;-68
2023/05/09 07:21:16;;;;;;;0.10;0.10;;;;;;;15.58;67.76;100546.16;7303053;19;20018;-68
2023/05/09 07:23:42;;;;;;;0.03;0.03;;;;;;;15.62;67.85;100539.81;7338779;19;20035;-68
2023/05/09 07:26:07;;;;;;;0.10;0.10;;;;;;;15.64;67.59;100548.53;7357893;19;20488;-68
2023/05/09 07:28:33;;;;;;;0.10;0.10;;;;;;;15.66;67.13;100540.56;7359087;19;20003;-68
2023/05/09 07:30:58;;;;;;;0.10;0.10;;;;;;;15.66;66.82;100541.44;7357942;19;20798;-68
2023/05/09 07:33:23;;;;;;;0.10;0.10;;;;;;;15.67;66.87;100540.50;7358469;19;20017;-67
2023/05/09 07:35:49;;;;;;;0.00;0.00;;;;;;;15.67;66.91;100543.13;7358213;19;20035;-68
2023/05/09 07:38:15;;;;;;;0.00;0.00;;;;;;;15.68;66.62;100541.34;7358426;19;20007;-68
2023/05/09 07:40:40;;;;;;;0.10;0.10;;;;;;;15.69;66.66;100557.06;7361766;19;20574;-68
2023/05/09 07:43:05;;;;;;;0.00;0.00;;;;;;;15.70;66.64;100545.59;7354947;19;20018;-67
2023/05/09 07:45:31;;;;;;;0.10;0.10;;;;;;;15.73;66.71;100547.25;7360160;19;20015;-68
2023/05/09 07:47:56;;;;;;;0.10;0.10;;;;;;;15.72;67.00;100543.78;7358971;19;20021;-67
2023/05/09 07:50:22;;;;;;;0.08;0.08;;;;;;;15.76;66.46;100542.72;7356098;19;20480;-68
2023/05/09 07:52:48;;;;;;;0.10;0.10;;;;;;;15.77;66.58;100549.69;7349028;19;20034;-66
2023/05/09 07:55:13;;;;;;;0.00;0.00;;;;;;;15.73;66.52;100532.31;7352385;19;20006;-68
2023/05/09 07:57:39;;;;;;;0.10;0.10;;;;;;;15.78;66.36;100543.47;7353997;19;20050;-64
2023/05/09 08:00:05;;;;;;;0.05;0.05;;;;;;;15.77;66.70;100533.03;7353722;19;20010;-68
2023/05/09 08:02:31;;;;;;;0.10;0.10;;;;;;;15.77;66.94;100528.63;7356508;19;21212;-68
2023/05/09 08:04:56;;;;;;;0.10;0.10;;;;;;;15.71;67.06;100525.41;7354164;19;20018;-69
2023/05/09 08:07:22;;;;;;;0.10;0.10;;;;;;;15.84;66.55;100534.44;7357292;19;20021;-68
2023/05/09 08:09:47;;;;;;;0.10;0.10;;;;;;;15.89;66.95;100536.84;7351139;19;20344;-67
2023/05/09 08:12:12;;;;;;;0.10;0.10;;;;;;;15.86;66.74;100522.03;7355940;19;20333;-68
2023/05/09 08:14:38;;;;;;;0.10;0.10;;;;;;;15.97;66.32;100534.72;7353456;19;20023;-68
2023/05/09 08:17:03;;;;;;;0.00;0.00;;;;;;;16.00;66.38;100531.94;7356456;19;20014;-68
2023/05/09 08:19:29;;;;;;;0.10;0.10;;;;;;;16.04;66.72;100525.59;7355916;19;20759;-68
2023/05/09 08:21:54;;;;;;;0.10;0.10;;;;;;;15.94;66.29;100505.88;7357191;19;20034;-68
2023/05/09 08:24:20;;;;;;;0.10;0.10;;;;;;;16.10;66.23;100525.28;7355018;19;20052;-67
2023/05/09 08:26:45;;;;;;;0.10;0.10;;;;;;;16.15;66.48;100525.91;7354844;19;20029;-68
2023/05/09 08:29:11;;;;;;;0.10;0.10;;;;;;;16.21;66.34;100522.97;7356947;19;20010;-68
2023/05/09 08:31:36;;;;;;;0.10;0.10;;;;;;;16.25;65.94;100518.41;7357383;19;20010;-68
2023/05/09 08:34:02;;;;;;;0.10;0.10;;;;;;;16.28;65.67;100529.69;7353386;19;20042;-67
2023/05/09 08:36:27;;;;;;;0.10;0.10;;;;;;;16.30;65.32;100526.94;7352351;19;20014;-68
2023/05/09 08:38:52;;;;;;;0.00;0.00;;;;;;;16.33;65.34;100526.81;7354240;19;20035;-68
2023/05/09 08:41:25;;;;;;;0.05;0.05;;;;;;;16.38;65.28;100526.59;7356829;19;20014;-68
2023/05/09 08:43:51;;;;;;;0.00;0.00;;;;;;;16.38;65.04;100529.22;7356630;19;20021;-68
2023/05/09 08:46:21;;;;;;;0.10;0.10;;;;;;;16.41;65.30;100523.78;7355685;19;20078;-68
2023/05/09 08:48:47;;;;;;;0.00;0.00;;;;;;;16.32;64.93;100507.53;7358823;19;20062;-68
2023/05/09 08:51:14;;;;;;;0.10;0.10;;;;;;;16.45;65.15;100525.34;7354681;19;19992;-68
2023/05/09 08:53:42;;;;;;;0.10;0.10;;;;;;;16.51;64.70;100519.75;7358723;19;20096;-68
2023/05/09 08:56:08;;;;;;;;;;;;;;;16.62;65.40;100517.44;7358305;19;20014;-68
2023/05/09 08:58:33;;;;;;;0.10;0.10;;;;;;;16.47;64.71;100494.47;7358845;19;20588;-68
2023/05/09 09:01:03;;;;;;;0.10;0.10;;;;;;;16.63;64.72;100513.88;7354363;19;20033;-68
2023/05/09 09:03:29;;;;;;;0.10;0.10;;;;;;;16.69;64.27;100523.25;7359161;19;20825;-68
2023/05/09 09:05:56;;;;;;;0.00;0.00;;;;;;;16.72;64.17;100513.44;7354763;19;20014;-68
2023/05/09 09:08:21;;;;;;;0.05;0.05;;;;;;;16.76;64.09;100509.72;7357021;19;20019;-65
2023/05/09 09:10:47;;;;;;;0.00;0.00;;;;;;;16.82;63.80;100504.13;7354620;19;20010;-68
2023/05/09 09:13:15;;;;;;;0.10;0.10;;;;;;;16.83;64.12;100492.66;7354813;19;20642;-68
2023/05/09 09:15:43;;;;;;;0.00;0.00;;;;;;;17.06;64.63;100512.53;7350681;19;20009;-68
2023/05/09 09:18:14;;;;;;;0.10;0.10;;;;;;;17.20;64.26;100503.91;7355518;19;20010;-68
2023/05/09 09:20:45;;;;;;;0.10;0.10;;;;;;;17.38;64.64;100505.53;7352957;19;20018;-68
2023/05/09 09:23:16;;;;;;;0.10;0.10;;;;;;;17.57;63.89;100501.91;7345119;19;20613;-68
2023/05/09 09:25:45;;;;;;;0.10;0.10;;;;;;;17.79;63.56;100497.19;7356675;19;20014;-68
2023/05/09 09:28:11;;;;;;;0.10;0.10;;;;;;;17.96;63.22;100500.66;7355691;19;20026;-67
2023/05/09 09:30:47;;;;;;;0.13;0.13;;;;;;;18.13;63.98;100485.53;7354810;19;20024;-69
2023/05/09 09:33:25;;;;;;;0.10;0.10;;;;;;;18.50;63.95;100506.34;7354999;19;20021;-68
2023/05/09 09:35:52;;;;;;;0.10;0.10;;;;;;;18.66;62.08;100494.78;7355687;19;20069;-68
2023/05/09 09:38:18;;;;;;;0.10;0.10;;;;;;;18.88;61.88;100499.66;7353775;19;20014;-68
2023/05/09 09:40:50;;;;;;;0.00;0.00;;;;;;;19.18;61.84;100506.69;7358595;19;20109;-68
2023/05/09 09:43:15;;;;;;;0.10;0.10;;;;;;;19.28;60.33;100496.38;7344871;19;21807;-68
2023/05/09 09:45:41;;;;;;;0.10;0.10;;;;;;;19.45;59.86;100491.72;7345672;19;20006;-68
2023/05/09 09:48:06;;;;;;;0.10;0.10;;;;;;;19.68;59.03;100489.44;7351768;19;20014;-68
2023/05/09 09:50:32;;;;;;;0.10;0.10;;;;;;;19.89;58.49;100488.06;7339588;19;20014;-68
2023/05/09 09:52:59;;;;;;;0.10;0.10;;;;;;;20.14;58.00;100482.00;7344627;19;20010;-68
2023/05/09 09:55:25;;;;;;;0.13;0.13;;;;;;;20.39;57.42;100486.53;7344383;19;20033;-69
2023/05/09 09:57:51;;;;;;;0.10;0.10;;;;;;;20.61;56.96;100482.47;7341709;19;20606;-68
2023/05/09 10:00:23;;;;;;;0.10;0.10;;;;;;;20.84;56.28;100481.75;7344943;19;20083;-68
2023/05/09 10:02:53;;;;;;;0.10;0.10;;;;;;;21.13;57.37;100477.03;7344396;19;20014;-68
2023/05/09 10:05:29;;;;;;;0.10;0.10;;;;;;;21.36;56.67;100471.97;7345384;19;20010;-68
2023/05/09 10:07:59;;;;;;;0.10;0.10;;;;;;;21.66;56.97;100474.22;7343396;19;20029;-68
2023/05/09 10:10:27;;;;;;;0.00;0.00;;;;;;;21.85;54.86;100461.28;7346048;19;20288;-68
2023/05/09 10:12:55;;;;;;;;;;;;;;;22.33;60.41;100474.56;7340137;19;20030;-68
2023/05/09 10:15:21;;;;;;;0.10;0.10;;;;;;;22.46;54.03;100470.03;7342106;19;19930;-62
2023/05/09 10:17:52;;;;;;;0.10;0.10;;;;;;;22.71;54.05;100465.50;7343242;19;20641;-62
2023/05/09 10:20:18;;;;;;;0.10;0.10;;;;;;;22.88;53.30;100467.72;7345982;19;20014;-63
2023/05/09 10:22:44;;;;;;;0.10;0.10;;;;;;;23.02;52.56;100462.16;7345022;19;20030;-62
2023/05/09 10:25:20;;;;;;;0.10;0.10;;;;;;;23.40;54.84;100463.59;7339509;19;20031;-64
2023/05/09 10:27:46;;;;;;;0.10;0.10;;;;;;;23.61;51.83;100462.84;7344489;19;20628;-62
2023/05/09 10:30:17;;;;;;;0.10;0.10;;;;;;;23.97;51.75;100459.84;7345318;19;20708;-62
2023/05/09 10:32:57;;;;;;;0.00;0.00;;;;;;;24.15;52.60;100440.63;7345883;19;20478;-62
2023/05/09 10:35:31;;;;;;;0.00;0.00;;;;;;;24.44;51.44;100457.75;7344189;19;20570;-63
2023/05/09 10:37:58;;;;;;;0.10;0.10;;;;;;;24.51;47.27;100450.06;7346478;19;20025;-62
2023/05/09 10:40:25;;;;;;;0.10;0.10;;;;;;;24.65;48.95;100459.56;7346669;19;20031;-63
2023/05/09 10:42:51;;;;;;;0.10;0.10;;;;;;;24.76;47.51;100454.16;7353364;19;20735;-63
2023/05/09 10:45:16;;;;;;;0.10;0.10;;;;;;;24.89;47.78;100444.09;7351428;19;20026;-62
2023/05/09 10:47:43;;;;;;;0.08;0.08;;;;;;;25.01;48.67;100439.50;7352522;19;20011;-63
2023/05/09 10:50:11;;;;;;;0.10;0.10;;;;;;;25.16;46.89;100438.19;7349287;19;20009;-63
2023/05/09 10:53:02;;;;;;;0.10;0.10;;;;;;;25.42;50.08;100443.06;7349384;19;20473;-63
2023/05/09 10:55:50;;;;;;;0.10;0.10;;;;;;;25.64;50.75;100442.81;7348562;19;20103;-63
2023/05/09 10:58:27;;;;;;;0.10;0.10;;;;;;;25.93;47.86;100431.34;7347496;19;20018;-63
2023/05/09 11:00:56;;;;;;;0.10;0.10;;;;;;;26.13;46.04;100433.88;7350106;19;20011;-63
2023/05/09 11:03:23;;;;;;;0.10;0.10;;;;;;;26.32;43.64;100419.63;7351331;19;20019;-63
2023/05/09 11:05:51;;;;;;;0.10;0.10;;;;;;;26.59;43.12;100429.63;7348377;19;20015;-63
2023/05/09 11:08:27;;;;;;;0.10;0.10;;;;;;;26.91;45.29;100425.69;7349122;19;20014;-63
2023/05/09 11:10:55;;;;;;;0.05;0.05;;;;;;;27.03;41.47;100421.84;7351231;19;20017;-63
2023/05/09 11:13:22;;;;;;;0.10;0.10;;;;;;;27.22;43.03;100420.09;7350330;19;20014;-63
2023/05/09 11:16:08;;;;;;;0.00;0.00;;;;;;;27.51;46.17;100417.25;7350686;19;20014;-63
2023/05/09 11:18:33;;;;;;;0.10;0.10;;;;;;;27.57;39.44;100409.44;7350228;19;20003;-63
2023/05/09 11:21:08;;;;;;;0.10;0.10;;;;;;;27.87;43.36;100399.38;7350454;19;20640;-63
2023/05/09 11:23:33;;;;;;;0.00;0.00;;;;;;;27.91;39.61;100406.13;7350229;19;20043;-63
2023/05/09 11:26:07;;;;;;;0.08;0.08;;;;;;;28.18;43.08;100397.09;7348221;19;20073;-63